createdAt,value
2022-10-02T00:00:00.733Z,101243.50
2022-10-02T00:02:49.772Z,101241.44
2022-10-02T00:05:43.222Z,101256.22
2022-10-02T00:08:24.004Z,101253.50
2022-10-02T00:10:57.319Z,101252.56
2022-10-02T00:13:35.013Z,101249.66
2022-10-02T00:16:10.752Z,101257.34
2022-10-02T00:18:39.774Z,101259.88
2022-10-02T00:21:33.382Z,101250.31
2022-10-02T00:24:05.629Z,101259.88
2022-10-02T00:26:57.023Z,101251.44
2022-10-02T00:29:49.694Z,101257.91
2022-10-02T00:32:37.295Z,101252.03
2022-10-02T00:35:55.959Z,101262.91
2022-10-02T00:39:15.944Z,101263.28
2022-10-02T00:42:24.672Z,101259.22
2022-10-02T00:45:20.521Z,101263.03
2022-10-02T00:48:16.404Z,101262.47
2022-10-02T00:50:59.550Z,101251.16
2022-10-02T00:53:53.957Z,101264.47
2022-10-02T00:56:49.721Z,101258.38
2022-10-02T00:59:54.037Z,101254.13
2022-10-02T01:02:26.964Z,101251.69
2022-10-02T01:04:54.498Z,101249.31
2022-10-02T01:07:22.121Z,101247.72
2022-10-02T01:09:49.468Z,101244.47
2022-10-02T01:12:16.823Z,101250.00
2022-10-02T01:14:43.931Z,101250.25
2022-10-02T01:17:33.576Z,101246.19
2022-10-02T01:20:05.817Z,101248.13
2022-10-02T01:23:15.906Z,101242.19
2022-10-02T01:25:43.678Z,101249.31
2022-10-02T01:28:11.830Z,101238.97
2022-10-02T01:30:43.205Z,101250.41
2022-10-02T01:33:13.652Z,101246.78
2022-10-02T01:35:42.375Z,101253.63
2022-10-02T01:38:14.741Z,101254.31
2022-10-02T01:40:42.728Z,101254.25
2022-10-02T01:43:32.499Z,101248.91
2022-10-02T01:46:31.843Z,101258.47
2022-10-02T01:49:33.972Z,101250.75
2022-10-02T01:52:32.000Z,101255.00
2022-10-02T01:55:31.547Z,101258.38
2022-10-02T01:58:20.271Z,101256.69
2022-10-02T02:01:27.277Z,101257.63
2022-10-02T02:04:21.909Z,101260.09
2022-10-02T02:07:09.087Z,101259.00
2022-10-02T02:10:05.016Z,101265.84
2022-10-02T02:12:41.886Z,101272.72
2022-10-02T02:15:36.963Z,101270.00
2022-10-02T02:18:25.731Z,101273.56
2022-10-02T02:20:59.698Z,101281.28
2022-10-02T02:23:36.430Z,101275.00
2022-10-02T02:26:12.367Z,101278.41
2022-10-02T02:28:51.029Z,101276.63
2022-10-02T02:31:24.603Z,101274.59
2022-10-02T02:33:59.506Z,101276.22
2022-10-02T02:36:40.952Z,101275.09
2022-10-02T02:39:15.268Z,101272.47
2022-10-02T02:41:52.746Z,101273.06
2022-10-02T02:44:33.508Z,101276.44
2022-10-02T02:47:17.008Z,101276.44
2022-10-02T02:49:54.637Z,101271.94
2022-10-02T02:52:41.703Z,101276.38
2022-10-02T02:55:21.916Z,101281.63
2022-10-02T02:58:13.028Z,101278.16
2022-10-02T03:00:40.394Z,101277.19
2022-10-02T03:03:07.621Z,101273.66
2022-10-02T03:05:40.473Z,101275.34
2022-10-02T03:08:21.602Z,101267.56
2022-10-02T03:11:10.701Z,101269.47
2022-10-02T03:14:05.311Z,101259.22
2022-10-02T03:17:25.711Z,101262.91
2022-10-02T03:20:22.097Z,101272.63
2022-10-02T03:23:01.061Z,101271.03
2022-10-02T03:25:37.515Z,101271.78
2022-10-02T03:28:43.576Z,101285.78
2022-10-02T03:31:11.575Z,101282.88
2022-10-02T03:33:40.359Z,101278.31
2022-10-02T03:36:07.632Z,101286.88
2022-10-02T03:38:35.390Z,101285.88
2022-10-02T03:41:02.432Z,101285.00
2022-10-02T03:43:30.660Z,101286.88
2022-10-02T03:45:57.921Z,101283.59
2022-10-02T03:48:25.282Z,101282.06
2022-10-02T03:50:52.362Z,101284.75
2022-10-02T03:53:29.259Z,101284.94
2022-10-02T03:56:08.612Z,101278.94
2022-10-02T03:58:43.305Z,101271.22
2022-10-02T04:01:32.514Z,101276.47
2022-10-02T04:04:10.114Z,101283.47
2022-10-02T04:07:19.159Z,101280.94
2022-10-02T04:10:14.207Z,101278.47
2022-10-02T04:12:47.014Z,101279.34
2022-10-02T04:15:53.332Z,101280.28
2022-10-02T04:18:33.825Z,101278.66
2022-10-02T04:21:18.486Z,101286.53
2022-10-02T04:24:04.575Z,101274.50
2022-10-02T04:26:38.221Z,101278.91
2022-10-02T04:29:25.924Z,101265.84
2022-10-02T04:32:05.648Z,101258.28
2022-10-02T04:34:32.792Z,101275.84
2022-10-02T04:37:02.857Z,101276.03
2022-10-02T04:39:52.126Z,101287.63
2022-10-02T04:42:41.002Z,101290.31
2022-10-02T04:45:29.280Z,101295.66
2022-10-02T04:48:30.174Z,101309.84
2022-10-02T04:51:24.507Z,101312.63
2022-10-02T04:54:13.677Z,101318.72
2022-10-02T04:57:02.463Z,101322.19
2022-10-02T04:59:44.361Z,101320.66
2022-10-02T05:02:29.433Z,101322.44
2022-10-02T05:05:11.279Z,101321.59
2022-10-02T05:08:03.066Z,101328.63
2022-10-02T05:11:15.297Z,101326.94
2022-10-02T05:14:18.304Z,101324.31
2022-10-02T05:17:14.458Z,101315.50
2022-10-02T05:19:57.527Z,101315.41
2022-10-02T05:23:04.379Z,101323.13
2022-10-02T05:25:40.190Z,101325.59
2022-10-02T05:28:29.264Z,101321.94
2022-10-02T05:31:16.331Z,101340.25
2022-10-02T05:34:15.075Z,101338.41
2022-10-02T05:37:08.317Z,101330.53
2022-10-02T05:40:10.637Z,101335.78
2022-10-02T05:43:05.897Z,101348.13
2022-10-02T05:45:44.234Z,101342.88
2022-10-02T05:48:22.845Z,101345.50
2022-10-02T05:51:09.113Z,101350.00
2022-10-02T05:54:05.761Z,101346.47
2022-10-02T05:56:44.929Z,101356.03
2022-10-02T05:59:45.017Z,101351.63
2022-10-02T06:02:40.496Z,101357.72
2022-10-02T06:05:23.608Z,101360.28
2022-10-02T06:07:57.837Z,101357.47
2022-10-02T06:10:38.129Z,101350.28
2022-10-02T06:13:13.800Z,101346.56
2022-10-02T06:15:53.234Z,101355.22
2022-10-02T06:18:26.818Z,101376.94
2022-10-02T06:21:10.096Z,101383.78
2022-10-02T06:23:46.493Z,101384.59
2022-10-02T06:26:43.122Z,101400.19
2022-10-02T06:29:27.156Z,101396.53
2022-10-02T06:32:22.406Z,101386.78
2022-10-02T06:34:50.456Z,101382.22
2022-10-02T06:37:51.004Z,101387.13
2022-10-02T06:40:56.333Z,101387.72
2022-10-02T06:43:23.273Z,101388.28
2022-10-02T06:45:58.331Z,101389.94
2022-10-02T06:48:51.325Z,101398.38
2022-10-02T06:51:51.361Z,101395.56
2022-10-02T06:54:33.114Z,101394.44
2022-10-02T06:57:26.423Z,101402.09
2022-10-02T07:00:11.911Z,101408.81
2022-10-02T07:03:03.490Z,101415.59
2022-10-02T07:06:01.348Z,101430.34
2022-10-02T07:09:18.489Z,101420.63
2022-10-02T07:12:04.146Z,101426.53
2022-10-02T07:15:07.538Z,101420.16
2022-10-02T07:17:37.419Z,101426.88
2022-10-02T07:20:53.213Z,101437.25
2022-10-02T07:23:42.082Z,101423.09
2022-10-02T07:27:01.258Z,101419.50
2022-10-02T07:29:57.653Z,101425.38
2022-10-02T07:32:42.813Z,101430.56
2022-10-02T07:35:43.312Z,101430.47
2022-10-02T07:38:43.375Z,101434.69
2022-10-02T07:41:39.694Z,101438.84
2022-10-02T07:44:38.224Z,101440.22
2022-10-02T07:47:57.231Z,101440.69
2022-10-02T07:50:51.134Z,101448.16
2022-10-02T07:53:45.020Z,101457.50
2022-10-02T07:56:20.108Z,101457.16
2022-10-02T07:59:09.570Z,101448.91
2022-10-02T08:01:43.783Z,101460.09
2022-10-02T08:04:18.779Z,101463.47
2022-10-02T08:06:48.076Z,101460.56
2022-10-02T08:09:39.169Z,101463.03
2022-10-02T08:12:36.552Z,101461.09
2022-10-02T08:15:06.141Z,101469.56
2022-10-02T08:17:46.755Z,101480.75
2022-10-02T08:20:35.183Z,101490.09
2022-10-02T08:23:41.797Z,101492.38
2022-10-02T08:26:35.806Z,101504.28
2022-10-02T08:29:28.250Z,101501.28
2022-10-02T08:31:56.537Z,101503.81
2022-10-02T08:34:25.293Z,101507.00
2022-10-02T08:37:13.251Z,101507.66
2022-10-02T08:40:02.656Z,101508.13
2022-10-02T08:43:08.478Z,101506.97
2022-10-02T08:46:21.866Z,101519.78
2022-10-02T08:49:13.084Z,101521.22
2022-10-02T08:52:14.097Z,101533.06
2022-10-02T08:54:55.854Z,101535.25
2022-10-02T08:58:11.333Z,101533.38
2022-10-02T09:01:06.748Z,101539.50
2022-10-02T09:03:45.657Z,101535.91
2022-10-02T09:06:46.462Z,101545.41
2022-10-02T09:09:37.608Z,101546.19
2022-10-02T09:12:38.203Z,101554.84
2022-10-02T09:15:25.368Z,101552.41
2022-10-02T09:18:23.280Z,101560.31
2022-10-02T09:20:52.797Z,101551.47
2022-10-02T09:24:10.232Z,101557.31
2022-10-02T09:26:52.068Z,101556.66
2022-10-02T09:30:02.632Z,101553.44
2022-10-02T09:33:23.344Z,101555.59
2022-10-02T09:36:33.467Z,101556.06
2022-10-02T09:39:01.669Z,101558.31
2022-10-02T09:42:04.994Z,101556.34
2022-10-02T09:45:28.654Z,101557.72
2022-10-02T09:48:45.398Z,101570.63
2022-10-02T09:51:52.246Z,101568.56
2022-10-02T09:55:29.870Z,101559.69
2022-10-02T09:58:23.764Z,101571.47
2022-10-02T10:01:25.096Z,101567.50
2022-10-02T10:04:24.239Z,101560.34
2022-10-02T10:06:57.250Z,101567.97
2022-10-02T10:10:02.633Z,101572.88
2022-10-02T10:12:57.622Z,101568.59
2022-10-02T10:16:11.590Z,101572.66
2022-10-02T10:19:29.865Z,101572.81
2022-10-02T10:22:12.369Z,101581.94
2022-10-02T10:25:18.223Z,101586.81
2022-10-02T10:28:21.639Z,101594.28
2022-10-02T10:31:28.106Z,101596.88
2022-10-02T10:34:32.050Z,101602.41
2022-10-02T10:37:57.564Z,101589.69
2022-10-02T10:40:52.373Z,101605.97
2022-10-02T10:43:51.393Z,101603.97
2022-10-02T10:47:20.386Z,101612.66
2022-10-02T10:50:05.318Z,101623.66
2022-10-02T10:53:13.409Z,101611.78
2022-10-02T10:55:59.053Z,101616.56
2022-10-02T10:59:30.416Z,101626.81
2022-10-02T11:02:06.134Z,101626.38
2022-10-02T11:05:10.126Z,101620.34
2022-10-02T11:08:05.838Z,101622.25
2022-10-02T11:10:47.967Z,101622.06
2022-10-02T11:13:50.069Z,101629.06
2022-10-02T11:16:35.281Z,101617.66
2022-10-02T11:19:33.602Z,101637.69
2022-10-02T11:22:42.615Z,101629.63
2022-10-02T11:25:44.938Z,101628.56
2022-10-02T11:28:31.677Z,101627.53
2022-10-02T11:31:29.944Z,101633.09
2022-10-02T11:34:21.627Z,101642.59
2022-10-02T11:37:00.546Z,101645.84
2022-10-02T11:39:58.218Z,101648.50
2022-10-02T11:43:04.303Z,101642.78
2022-10-02T11:46:19.253Z,101639.84
2022-10-02T11:49:20.151Z,101640.47
2022-10-02T11:52:11.466Z,101644.50
2022-10-02T11:55:14.278Z,101651.63
2022-10-02T11:58:05.086Z,101654.94
2022-10-02T12:00:55.571Z,101664.06
2022-10-02T12:03:55.547Z,101659.19
2022-10-02T12:06:55.209Z,101659.50
2022-10-02T12:10:00.775Z,101659.50
2022-10-02T12:12:55.835Z,101665.84
2022-10-02T12:15:38.130Z,101659.41
2022-10-02T12:18:21.477Z,101668.81
2022-10-02T12:21:26.707Z,101667.75
2022-10-02T12:24:34.831Z,101666.50
2022-10-02T12:27:27.120Z,101669.03
2022-10-02T12:30:48.661Z,101663.72
2022-10-02T12:33:42.551Z,101666.16
2022-10-02T12:36:46.064Z,101662.44
2022-10-02T12:39:40.141Z,101665.09
2022-10-02T12:42:20.415Z,101664.53
2022-10-02T12:45:16.431Z,101661.69
2022-10-02T12:48:24.901Z,101666.66
2022-10-02T12:51:36.801Z,101671.28
2022-10-02T12:54:43.854Z,101667.06
2022-10-02T12:57:55.398Z,101674.88
2022-10-02T13:01:04.207Z,101678.44
2022-10-02T13:03:57.514Z,101669.69
2022-10-02T13:07:10.834Z,101680.59
2022-10-02T13:10:19.445Z,101688.16
2022-10-02T13:13:20.897Z,101685.72
2022-10-02T13:16:34.349Z,101677.72
2022-10-02T13:19:50.198Z,101684.19
2022-10-02T13:22:58.754Z,101687.69
2022-10-02T13:25:50.532Z,101687.47
2022-10-02T13:28:43.062Z,101694.13
2022-10-02T13:31:39.717Z,101687.44
2022-10-02T13:34:53.268Z,101688.28
2022-10-02T13:38:06.581Z,101692.69
2022-10-02T13:41:00.838Z,101688.78
2022-10-02T13:43:49.093Z,101690.97
2022-10-02T13:46:54.831Z,101696.09
2022-10-02T13:49:45.133Z,101704.47
2022-10-02T13:52:52.044Z,101709.00
2022-10-02T13:55:29.277Z,101709.00
2022-10-02T13:58:17.918Z,101708.63
2022-10-02T14:01:04.511Z,101716.06
2022-10-02T14:03:54.500Z,101717.44
2022-10-02T14:06:40.784Z,101716.25
2022-10-02T14:09:20.031Z,101720.63
2022-10-02T14:12:21.478Z,101727.06
2022-10-02T14:15:19.709Z,101730.16
2022-10-02T14:18:02.489Z,101738.09
2022-10-02T14:21:03.441Z,101726.66
2022-10-02T14:24:00.709Z,101735.06
2022-10-02T14:27:15.598Z,101734.31
2022-10-02T14:29:58.737Z,101739.16
2022-10-02T14:33:07.945Z,101740.06
2022-10-02T14:35:53.948Z,101744.97
2022-10-02T14:39:04.718Z,101740.44
2022-10-02T14:42:10.305Z,101743.63
2022-10-02T14:44:56.953Z,101735.22
2022-10-02T14:48:05.121Z,101736.75
2022-10-02T14:51:05.390Z,101743.88
2022-10-02T14:54:17.161Z,101742.59
2022-10-02T14:57:31.769Z,101752.84
2022-10-02T15:00:17.600Z,101754.78
2022-10-02T15:03:24.839Z,101759.72
2022-10-02T15:06:22.183Z,101756.00
2022-10-02T15:09:24.189Z,101766.72
2022-10-02T15:12:08.451Z,101762.34
2022-10-02T15:15:16.511Z,101769.28
2022-10-02T15:18:38.441Z,101762.81
2022-10-02T15:21:29.918Z,101763.75
2022-10-02T15:23:59.295Z,101789.28
2022-10-02T15:26:40.718Z,101774.31
2022-10-02T15:29:24.274Z,101784.38
2022-10-02T15:31:55.638Z,101788.13
2022-10-02T15:34:43.189Z,101788.50
2022-10-02T15:38:24.441Z,101789.72
2022-10-02T15:41:12.785Z,101802.97
2022-10-02T15:44:36.945Z,101809.88
2022-10-02T15:48:08.140Z,101801.75
2022-10-02T15:51:01.580Z,101811.66
2022-10-02T15:53:51.479Z,101818.63
2022-10-02T15:56:40.349Z,101814.38
2022-10-02T15:59:24.167Z,101829.41
2022-10-02T16:02:06.577Z,101820.69
2022-10-02T16:04:52.449Z,101825.31
2022-10-02T16:07:36.592Z,101836.75
2022-10-02T16:10:19.216Z,101837.09
2022-10-02T16:13:10.676Z,101847.28
2022-10-02T16:15:54.407Z,101847.75
2022-10-02T16:18:21.512Z,101855.53
2022-10-02T16:21:12.689Z,101847.78
2022-10-02T16:24:23.853Z,101855.13
2022-10-02T16:27:27.064Z,101862.50
2022-10-02T16:30:13.790Z,101870.94
2022-10-02T16:33:25.873Z,101883.53
2022-10-02T16:36:31.787Z,101884.38
2022-10-02T16:39:14.641Z,101892.22
2022-10-02T16:42:25.869Z,101898.66
2022-10-02T16:45:13.925Z,101900.72
2022-10-02T16:48:14.764Z,101904.31
2022-10-02T16:51:06.941Z,101910.31
2022-10-02T16:54:11.491Z,101912.09
2022-10-02T16:57:00.843Z,101919.00
2022-10-02T16:59:54.438Z,101929.34
2022-10-02T17:02:34.316Z,101932.59
2022-10-02T17:05:33.889Z,101935.84
2022-10-02T17:08:21.222Z,101944.38
2022-10-02T17:11:15.277Z,101945.72
2022-10-02T17:14:10.601Z,101953.22
2022-10-02T17:16:55.758Z,101957.22
2022-10-02T17:19:45.799Z,101957.72
2022-10-02T17:23:11.128Z,101961.56
2022-10-02T17:26:08.693Z,101968.09
2022-10-02T17:29:00.648Z,101973.84
2022-10-02T17:31:52.481Z,101988.16
2022-10-02T17:34:31.888Z,101988.50
2022-10-02T17:37:14.041Z,101991.41
2022-10-02T17:40:43.007Z,101994.44
2022-10-02T17:43:30.446Z,101998.31
2022-10-02T17:46:03.295Z,101993.34
2022-10-02T17:48:56.651Z,102004.06
2022-10-02T17:51:54.580Z,102009.63
2022-10-02T17:54:47.680Z,102020.34
2022-10-02T17:57:50.887Z,102021.41
2022-10-02T18:00:24.689Z,102026.06
2022-10-02T18:03:18.617Z,102039.63
2022-10-02T18:06:17.109Z,102039.06
2022-10-02T18:09:26.418Z,102048.19
2022-10-02T18:12:44.304Z,102051.19
2022-10-02T18:15:48.399Z,102061.19
2022-10-02T18:18:37.856Z,102063.31
2022-10-02T18:21:39.256Z,102067.09
2022-10-02T18:24:39.639Z,102074.41
2022-10-02T18:27:41.287Z,102079.03
2022-10-02T18:30:22.518Z,102088.06
2022-10-02T18:33:13.823Z,102079.47
2022-10-02T18:36:32.778Z,102080.56
2022-10-02T18:39:23.335Z,102089.47
2022-10-02T18:42:31.730Z,102094.88
2022-10-02T18:45:29.757Z,102093.28
2022-10-02T18:48:05.635Z,102098.69
2022-10-02T18:50:50.726Z,102092.78
2022-10-02T18:53:41.836Z,102092.94
2022-10-02T18:56:13.589Z,102097.47
2022-10-02T18:59:26.337Z,102095.91
2022-10-02T19:02:12.809Z,102098.59
2022-10-02T19:05:22.627Z,102103.06
2022-10-02T19:08:03.479Z,102110.16
2022-10-02T19:10:30.587Z,102114.66
2022-10-02T19:13:17.586Z,102121.03
2022-10-02T19:15:48.583Z,102122.03
2022-10-02T19:18:18.510Z,102124.78
2022-10-02T19:21:13.462Z,102124.91
2022-10-02T19:27:00.641Z,102128.00
2022-10-02T19:29:57.807Z,102126.41
2022-10-02T19:32:48.413Z,102130.00
2022-10-02T19:35:22.297Z,102137.25
2022-10-02T19:37:53.840Z,102140.97
2022-10-02T19:40:35.273Z,102145.44
2022-10-02T19:43:41.373Z,102153.47
2022-10-02T19:46:10.535Z,102150.16
2022-10-02T19:48:38.976Z,102149.28
2022-10-02T19:51:17.290Z,102154.69
2022-10-02T19:54:00.558Z,102154.81
2022-10-02T19:56:49.347Z,102158.50
2022-10-02T19:59:42.594Z,102165.69
2022-10-02T20:02:31.040Z,102174.69
2022-10-02T20:05:02.226Z,102182.69
2022-10-02T20:07:34.420Z,102196.06
2022-10-02T20:10:26.273Z,102191.88
2022-10-02T20:13:28.259Z,102195.66
2022-10-02T20:16:27.942Z,102191.47
2022-10-02T20:18:55.624Z,102195.13
2022-10-02T20:21:44.911Z,102197.97
2022-10-02T20:24:43.323Z,102197.34
2022-10-02T20:27:19.150Z,102210.53
2022-10-02T20:29:52.926Z,102219.38
2022-10-02T20:32:41.990Z,102213.41
2022-10-02T20:35:22.418Z,102203.84
2022-10-02T20:37:52.923Z,102204.78
2022-10-02T20:40:29.860Z,102205.75
2022-10-02T20:43:09.599Z,102207.69
2022-10-02T20:45:46.531Z,102213.03
2022-10-02T20:49:09.169Z,102210.53
2022-10-02T20:51:58.510Z,102225.47
2022-10-02T20:55:00.669Z,102229.13
2022-10-02T20:58:00.147Z,102239.72
2022-10-02T21:00:49.970Z,102241.56
2022-10-02T21:03:22.822Z,102246.94
2022-10-02T21:06:07.274Z,102241.78
2022-10-02T21:08:58.512Z,102253.28
2022-10-02T21:11:57.057Z,102262.09
2022-10-02T21:14:53.573Z,102268.25
2022-10-02T21:18:04.350Z,102265.78
2022-10-02T21:21:02.454Z,102265.78
2022-10-02T21:24:14.208Z,102272.84
2022-10-02T21:27:23.923Z,102283.53
2022-10-02T21:30:18.429Z,102287.13
2022-10-02T21:33:22.008Z,102300.31
2022-10-02T21:35:58.643Z,102304.81
2022-10-02T21:39:14.959Z,102298.84
2022-10-02T21:42:28.347Z,102300.63
2022-10-02T21:45:57.458Z,102308.59
2022-10-02T21:49:00.815Z,102306.06
2022-10-02T21:51:40.787Z,102313.19
2022-10-02T21:54:40.912Z,102312.34
2022-10-02T21:57:29.247Z,102309.81
2022-10-02T22:00:16.120Z,102319.41
2022-10-02T22:03:30.391Z,102320.38
2022-10-02T22:06:20.171Z,102317.91
2022-10-02T22:09:05.791Z,102327.56
2022-10-02T22:12:13.975Z,102321.56
2022-10-02T22:15:04.431Z,102326.81
2022-10-02T22:17:52.999Z,102315.53
2022-10-02T22:21:02.364Z,102325.19
2022-10-02T22:24:12.297Z,102327.81
2022-10-02T22:27:49.368Z,102321.75
2022-10-02T22:30:54.749Z,102339.31
2022-10-02T22:33:54.172Z,102330.69
2022-10-02T22:36:45.698Z,102326.38
2022-10-02T22:39:53.601Z,102338.56
2022-10-02T22:42:46.492Z,102335.94
2022-10-02T22:45:37.515Z,102335.13
2022-10-02T22:48:15.358Z,102340.41
2022-10-02T22:51:12.075Z,102338.78
2022-10-02T22:54:22.525Z,102348.34
2022-10-02T22:56:57.844Z,102357.16
2022-10-02T22:59:36.294Z,102351.13
2022-10-02T23:02:25.796Z,102353.84
2022-10-02T23:04:59.314Z,102347.78
2022-10-02T23:07:51.565Z,102340.81
2022-10-02T23:10:39.900Z,102330.50
2022-10-02T23:13:09.916Z,102336.59
2022-10-02T23:15:41.809Z,102342.69
2022-10-02T23:18:59.374Z,102341.84
2022-10-02T23:21:56.016Z,102347.09
2022-10-02T23:24:34.741Z,102351.44
2022-10-02T23:27:26.941Z,102348.03
2022-10-02T23:30:07.790Z,102355.88
2022-10-02T23:32:58.417Z,102356.78
2022-10-02T23:35:52.621Z,102359.47
2022-10-02T23:38:42.431Z,102369.16
2022-10-02T23:41:38.720Z,102369.25
2022-10-02T23:44:41.589Z,102371.09
2022-10-02T23:47:45.219Z,102367.69
2022-10-02T23:50:59.110Z,102365.16
2022-10-02T23:53:31.187Z,102369.53
2022-10-02T23:56:48.585Z,102367.00
2022-10-02T23:59:44.930Z,102367.09
